sensor_id;sensor_type;location;lat;lon;timestamp;temperature;humidity
1948;DHT22;974;52.400;9.818;2023-02-18T00:02:05;7.50;99.90
1948;DHT22;974;52.400;9.818;2023-02-18T00:04:30;7.50;99.90
1948;DHT22;974;52.400;9.818;2023-02-18T00:06:56;7.50;99.90
1948;DHT22;974;52.400;9.818;2023-02-18T00:09:22;7.50;99.90
1948;DHT22;974;52.400;9.818;2023-02-18T00:11:47;7.50;99.90
1948;DHT22;974;52.400;9.818;2023-02-18T00:14:14;7.50;99.90
1948;DHT22;974;52.400;9.818;2023-02-18T00:16:41;7.50;99.90
1948;DHT22;974;52.400;9.818;2023-02-18T00:19:10;7.50;99.90
1948;DHT22;974;52.400;9.818;2023-02-18T00:21:36;7.50;99.90
1948;DHT22;974;52.400;9.818;2023-02-18T00:24:02;7.50;99.90
1948;DHT22;974;52.400;9.818;2023-02-18T00:26:28;7.50;99.90
1948;DHT22;974;52.400;9.818;2023-02-18T00:28:54;7.60;99.90
1948;DHT22;974;52.400;9.818;2023-02-18T00:31:26;7.60;99.90
1948;DHT22;974;52.400;9.818;2023-02-18T00:33:52;7.50;99.90
1948;DHT22;974;52.400;9.818;2023-02-18T00:36:19;7.50;99.90
1948;DHT22;974;52.400;9.818;2023-02-18T00:38:50;7.50;99.90
1948;DHT22;974;52.400;9.818;2023-02-18T00:41:16;7.60;99.90
1948;DHT22;974;52.400;9.818;2023-02-18T00:43:43;7.50;99.90
1948;DHT22;974;52.400;9.818;2023-02-18T00:46:08;7.50;99.90
1948;DHT22;974;52.400;9.818;2023-02-18T00:48:34;7.60;99.90
1948;DHT22;974;52.400;9.818;2023-02-18T00:51:01;7.60;99.90
1948;DHT22;974;52.400;9.818;2023-02-18T00:53:28;7.50;99.90
1948;DHT22;974;52.400;9.818;2023-02-18T00:55:54;7.60;99.90
1948;DHT22;974;52.400;9.818;2023-02-18T00:58:19;7.60;99.90
1948;DHT22;974;52.400;9.818;2023-02-18T01:00:45;7.50;99.90
1948;DHT22;974;52.400;9.818;2023-02-18T01:03:12;7.60;99.90
1948;DHT22;974;52.400;9.818;2023-02-18T01:05:38;7.50;99.90
1948;DHT22;974;52.400;9.818;2023-02-18T01:08:04;7.60;99.90
1948;DHT22;974;52.400;9.818;2023-02-18T01:10:30;7.60;99.90
1948;DHT22;974;52.400;9.818;2023-02-18T01:12:55;7.50;99.90
1948;DHT22;974;52.400;9.818;2023-02-18T01:15:21;7.60;99.90
1948;DHT22;974;52.400;9.818;2023-02-18T01:17:47;7.60;99.90
1948;DHT22;974;52.400;9.818;2023-02-18T01:20:13;7.60;99.90
1948;DHT22;974;52.400;9.818;2023-02-18T01:22:40;7.60;99.90
1948;DHT22;974;52.400;9.818;2023-02-18T01:25:06;7.60;99.90
1948;DHT22;974;52.400;9.818;2023-02-18T01:27:32;7.70;99.90
1948;DHT22;974;52.400;9.818;2023-02-18T01:29:57;7.60;99.90
1948;DHT22;974;52.400;9.818;2023-02-18T01:32:23;7.70;99.90
1948;DHT22;974;52.400;9.818;2023-02-18T01:34:48;7.70;99.90
1948;DHT22;974;52.400;9.818;2023-02-18T01:37:14;7.70;99.90
1948;DHT22;974;52.400;9.818;2023-02-18T01:39:39;7.80;99.90
1948;DHT22;974;52.400;9.818;2023-02-18T01:42:05;7.70;99.90
1948;DHT22;974;52.400;9.818;2023-02-18T01:44:34;7.70;99.90
1948;DHT22;974;52.400;9.818;2023-02-18T01:47:00;7.80;99.90
1948;DHT22;974;52.400;9.818;2023-02-18T01:49:29;7.80;99.90
1948;DHT22;974;52.400;9.818;2023-02-18T01:52:03;7.80;99.90
1948;DHT22;974;52.400;9.818;2023-02-18T01:54:35;7.90;99.90
1948;DHT22;974;52.400;9.818;2023-02-18T01:57:24;7.90;99.90
1948;DHT22;974;52.400;9.818;2023-02-18T01:59:55;7.90;99.90
1948;DHT22;974;52.400;9.818;2023-02-18T02:02:24;7.90;99.90
1948;DHT22;974;52.400;9.818;2023-02-18T02:04:51;7.90;99.90
1948;DHT22;974;52.400;9.818;2023-02-18T02:07:18;7.90;99.90
1948;DHT22;974;52.400;9.818;2023-02-18T02:09:45;7.90;99.90
1948;DHT22;974;52.400;9.818;2023-02-18T02:15:15;7.90;99.90
1948;DHT22;974;52.400;9.818;2023-02-18T02:40:02;8.00;99.90
1948;DHT22;974;52.400;9.818;2023-02-18T02:48:15;8.00;99.90
1948;DHT22;974;52.400;9.818;2023-02-18T02:50:49;8.00;99.90
1948;DHT22;974;52.400;9.818;2023-02-18T02:53:27;8.00;99.90
1948;DHT22;974;52.400;9.818;2023-02-18T02:55:54;8.00;99.90
1948;DHT22;974;52.400;9.818;2023-02-18T02:58:21;8.00;99.90
1948;DHT22;974;52.400;9.818;2023-02-18T03:00:54;8.00;99.90
1948;DHT22;974;52.400;9.818;2023-02-18T03:03:58;8.10;99.90
1948;DHT22;974;52.400;9.818;2023-02-18T03:06:40;8.00;99.90
1948;DHT22;974;52.400;9.818;2023-02-18T03:15:25;8.10;99.90
1948;DHT22;974;52.400;9.818;2023-02-18T03:18:01;8.10;99.90
1948;DHT22;974;52.400;9.818;2023-02-18T03:20:40;8.10;99.90
1948;DHT22;974;52.400;9.818;2023-02-18T03:23:11;8.10;99.90
1948;DHT22;974;52.400;9.818;2023-02-18T03:25:39;8.10;99.90
1948;DHT22;974;52.400;9.818;2023-02-18T03:28:08;8.10;99.90
1948;DHT22;974;52.400;9.818;2023-02-18T03:30:47;8.10;99.90
1948;DHT22;974;52.400;9.818;2023-02-18T03:33:16;8.10;99.90
1948;DHT22;974;52.400;9.818;2023-02-18T03:35:46;8.10;99.90
1948;DHT22;974;52.400;9.818;2023-02-18T03:38:25;8.10;99.90
1948;DHT22;974;52.400;9.818;2023-02-18T03:40:54;8.10;99.90
1948;DHT22;974;52.400;9.818;2023-02-18T03:43:19;8.10;99.90
1948;DHT22;974;52.400;9.818;2023-02-18T03:45:45;8.10;99.90
1948;DHT22;974;52.400;9.818;2023-02-18T03:48:10;8.20;99.90
1948;DHT22;974;52.400;9.818;2023-02-18T03:50:36;8.10;99.90
1948;DHT22;974;52.400;9.818;2023-02-18T03:53:01;8.20;99.90
1948;DHT22;974;52.400;9.818;2023-02-18T03:55:27;8.20;99.90
1948;DHT22;974;52.400;9.818;2023-02-18T03:57:52;8.20;99.90
1948;DHT22;974;52.400;9.818;2023-02-18T04:00:18;8.20;99.90
1948;DHT22;974;52.400;9.818;2023-02-18T04:02:44;8.20;99.90
1948;DHT22;974;52.400;9.818;2023-02-18T04:05:10;8.20;99.90
1948;DHT22;974;52.400;9.818;2023-02-18T04:07:36;8.20;99.90
1948;DHT22;974;52.400;9.818;2023-02-18T04:10:02;8.20;99.90
1948;DHT22;974;52.400;9.818;2023-02-18T04:12:28;8.20;99.90
1948;DHT22;974;52.400;9.818;2023-02-18T04:14:53;8.20;99.90
1948;DHT22;974;52.400;9.818;2023-02-18T04:17:19;8.30;99.90
1948;DHT22;974;52.400;9.818;2023-02-18T04:19:44;8.20;99.90
1948;DHT22;974;52.400;9.818;2023-02-18T04:22:10;8.20;99.90
1948;DHT22;974;52.400;9.818;2023-02-18T04:24:35;8.10;99.90
1948;DHT22;974;52.400;9.818;2023-02-18T04:27:00;8.10;99.90
1948;DHT22;974;52.400;9.818;2023-02-18T04:29:26;8.10;99.90
1948;DHT22;974;52.400;9.818;2023-02-18T04:31:51;8.10;99.90
1948;DHT22;974;52.400;9.818;2023-02-18T04:34:17;8.10;99.90
1948;DHT22;974;52.400;9.818;2023-02-18T04:36:42;8.10;99.90
1948;DHT22;974;52.400;9.818;2023-02-18T04:39:08;8.10;99.90
1948;DHT22;974;52.400;9.818;2023-02-18T04:41:33;8.00;99.90
1948;DHT22;974;52.400;9.818;2023-02-18T04:43:59;8.00;99.90
1948;DHT22;974;52.400;9.818;2023-02-18T04:46:24;7.90;99.90
1948;DHT22;974;52.400;9.818;2023-02-18T04:48:50;7.90;99.90
1948;DHT22;974;52.400;9.818;2023-02-18T04:51:15;7.90;99.90
1948;DHT22;974;52.400;9.818;2023-02-18T04:53:41;7.90;99.90
1948;DHT22;974;52.400;9.818;2023-02-18T04:56:06;7.90;99.90
1948;DHT22;974;52.400;9.818;2023-02-18T04:58:32;7.80;99.90
1948;DHT22;974;52.400;9.818;2023-02-18T05:00:59;7.80;99.90
1948;DHT22;974;52.400;9.818;2023-02-18T05:03:25;7.80;99.90
1948;DHT22;974;52.400;9.818;2023-02-18T05:05:50;7.80;99.90
1948;DHT22;974;52.400;9.818;2023-02-18T05:08:16;7.70;99.90
1948;DHT22;974;52.400;9.818;2023-02-18T05:10:41;7.80;99.90
1948;DHT22;974;52.400;9.818;2023-02-18T05:13:07;7.70;99.90
1948;DHT22;974;52.400;9.818;2023-02-18T05:15:32;7.80;99.90
1948;DHT22;974;52.400;9.818;2023-02-18T05:17:57;7.80;99.90
1948;DHT22;974;52.400;9.818;2023-02-18T05:20:23;7.80;99.90
1948;DHT22;974;52.400;9.818;2023-02-18T05:22:48;7.80;99.90
1948;DHT22;974;52.400;9.818;2023-02-18T05:25:14;7.80;99.90
1948;DHT22;974;52.400;9.818;2023-02-18T05:27:39;7.80;99.90
1948;DHT22;974;52.400;9.818;2023-02-18T05:30:05;7.70;99.90
1948;DHT22;974;52.400;9.818;2023-02-18T05:32:31;7.70;99.90
1948;DHT22;974;52.400;9.818;2023-02-18T05:34:56;7.70;99.90
1948;DHT22;974;52.400;9.818;2023-02-18T05:37:22;7.70;99.90
1948;DHT22;974;52.400;9.818;2023-02-18T05:39:48;7.70;99.90
1948;DHT22;974;52.400;9.818;2023-02-18T05:42:13;7.70;99.90
1948;DHT22;974;52.400;9.818;2023-02-18T05:44:38;7.70;99.90
1948;DHT22;974;52.400;9.818;2023-02-18T05:47:06;7.70;99.90
1948;DHT22;974;52.400;9.818;2023-02-18T05:49:34;7.70;99.90
1948;DHT22;974;52.400;9.818;2023-02-18T05:52:00;7.70;99.90
1948;DHT22;974;52.400;9.818;2023-02-18T05:54:25;7.70;99.90
1948;DHT22;974;52.400;9.818;2023-02-18T05:56:51;7.80;99.90
1948;DHT22;974;52.400;9.818;2023-02-18T05:59:17;7.70;99.90
1948;DHT22;974;52.400;9.818;2023-02-18T06:01:43;7.70;99.90
1948;DHT22;974;52.400;9.818;2023-02-18T06:04:09;7.70;99.90
1948;DHT22;974;52.400;9.818;2023-02-18T06:06:35;7.70;99.90
1948;DHT22;974;52.400;9.818;2023-02-18T06:09:01;7.80;99.90
1948;DHT22;974;52.400;9.818;2023-02-18T06:11:26;7.70;99.90
1948;DHT22;974;52.400;9.818;2023-02-18T06:13:52;7.70;99.90
1948;DHT22;974;52.400;9.818;2023-02-18T06:16:17;7.70;99.90
1948;DHT22;974;52.400;9.818;2023-02-18T06:18:43;7.70;99.90
1948;DHT22;974;52.400;9.818;2023-02-18T06:21:08;7.70;99.90
1948;DHT22;974;52.400;9.818;2023-02-18T06:23:34;7.70;99.90
1948;DHT22;974;52.400;9.818;2023-02-18T06:26:00;7.70;99.90
1948;DHT22;974;52.400;9.818;2023-02-18T06:28:25;7.70;99.90
1948;DHT22;974;52.400;9.818;2023-02-18T06:30:51;7.70;99.90
1948;DHT22;974;52.400;9.818;2023-02-18T06:33:16;7.70;99.90
1948;DHT22;974;52.400;9.818;2023-02-18T06:35:48;7.70;99.90
1948;DHT22;974;52.400;9.818;2023-02-18T06:38:16;7.80;99.90
1948;DHT22;974;52.400;9.818;2023-02-18T06:40:41;7.80;99.90
1948;DHT22;974;52.400;9.818;2023-02-18T06:43:07;7.80;99.90
1948;DHT22;974;52.400;9.818;2023-02-18T06:45:32;7.80;99.90
1948;DHT22;974;52.400;9.818;2023-02-18T06:47:58;7.70;99.90
1948;DHT22;974;52.400;9.818;2023-02-18T06:50:23;7.70;99.90
1948;DHT22;974;52.400;9.818;2023-02-18T06:52:49;7.80;99.90
1948;DHT22;974;52.400;9.818;2023-02-18T06:55:14;7.80;99.90
1948;DHT22;974;52.400;9.818;2023-02-18T06:57:39;7.90;99.90
1948;DHT22;974;52.400;9.818;2023-02-18T07:00:05;7.90;99.90
1948;DHT22;974;52.400;9.818;2023-02-18T07:02:31;7.90;99.90
1948;DHT22;974;52.400;9.818;2023-02-18T07:04:57;7.90;99.90
1948;DHT22;974;52.400;9.818;2023-02-18T07:07:22;7.90;99.90
1948;DHT22;974;52.400;9.818;2023-02-18T07:09:48;7.90;99.90
1948;DHT22;974;52.400;9.818;2023-02-18T07:12:13;7.90;99.90
1948;DHT22;974;52.400;9.818;2023-02-18T07:14:39;7.90;99.90
1948;DHT22;974;52.400;9.818;2023-02-18T07:17:04;7.90;99.90
1948;DHT22;974;52.400;9.818;2023-02-18T07:19:29;7.90;99.90
1948;DHT22;974;52.400;9.818;2023-02-18T07:21:55;7.90;99.90
1948;DHT22;974;52.400;9.818;2023-02-18T07:24:22;8.00;99.90
1948;DHT22;974;52.400;9.818;2023-02-18T07:26:48;8.00;99.90
1948;DHT22;974;52.400;9.818;2023-02-18T07:29:13;8.10;99.90
1948;DHT22;974;52.400;9.818;2023-02-18T07:31:39;8.20;99.90
1948;DHT22;974;52.400;9.818;2023-02-18T07:34:04;8.20;99.90
1948;DHT22;974;52.400;9.818;2023-02-18T07:36:30;8.30;99.90
1948;DHT22;974;52.400;9.818;2023-02-18T07:38:55;8.30;99.90
1948;DHT22;974;52.400;9.818;2023-02-18T07:41:22;8.40;99.90
1948;DHT22;974;52.400;9.818;2023-02-18T07:43:48;8.40;99.90
1948;DHT22;974;52.400;9.818;2023-02-18T07:46:14;8.50;99.90
1948;DHT22;974;52.400;9.818;2023-02-18T07:48:40;8.50;99.90
1948;DHT22;974;52.400;9.818;2023-02-18T07:51:06;8.60;99.90
1948;DHT22;974;52.400;9.818;2023-02-18T07:53:32;8.60;99.90
1948;DHT22;974;52.400;9.818;2023-02-18T07:55:58;8.60;99.90
1948;DHT22;974;52.400;9.818;2023-02-18T07:58:35;8.60;99.90
1948;DHT22;974;52.400;9.818;2023-02-18T08:01:10;8.70;99.90
1948;DHT22;974;52.400;9.818;2023-02-18T08:03:36;8.70;99.90
1948;DHT22;974;52.400;9.818;2023-02-18T08:06:04;8.80;99.90
1948;DHT22;974;52.400;9.818;2023-02-18T08:08:31;8.80;99.90
1948;DHT22;974;52.400;9.818;2023-02-18T08:10:59;8.80;99.90
1948;DHT22;974;52.400;9.818;2023-02-18T08:13:29;8.80;99.90
1948;DHT22;974;52.400;9.818;2023-02-18T08:15:55;8.90;99.90
1948;DHT22;974;52.400;9.818;2023-02-18T08:18:22;8.90;99.90
1948;DHT22;974;52.400;9.818;2023-02-18T08:20:49;9.00;99.90
1948;DHT22;974;52.400;9.818;2023-02-18T08:23:17;9.00;99.90
1948;DHT22;974;52.400;9.818;2023-02-18T08:25:48;9.00;99.90
1948;DHT22;974;52.400;9.818;2023-02-18T08:28:13;9.10;99.90
1948;DHT22;974;52.400;9.818;2023-02-18T08:30:44;9.10;99.90
1948;DHT22;974;52.400;9.818;2023-02-18T08:33:09;9.10;99.90
1948;DHT22;974;52.400;9.818;2023-02-18T08:35:35;9.30;99.90
1948;DHT22;974;52.400;9.818;2023-02-18T08:38:00;9.40;99.90
1948;DHT22;974;52.400;9.818;2023-02-18T08:40:26;9.40;99.90
1948;DHT22;974;52.400;9.818;2023-02-18T08:42:52;9.50;99.90
1948;DHT22;974;52.400;9.818;2023-02-18T08:45:18;9.50;99.90
1948;DHT22;974;52.400;9.818;2023-02-18T08:47:43;9.60;99.90
1948;DHT22;974;52.400;9.818;2023-02-18T08:50:09;9.70;99.90
1948;DHT22;974;52.400;9.818;2023-02-18T08:52:35;9.80;99.90
1948;DHT22;974;52.400;9.818;2023-02-18T08:55:00;9.80;99.90
1948;DHT22;974;52.400;9.818;2023-02-18T08:57:27;9.80;99.90
1948;DHT22;974;52.400;9.818;2023-02-18T08:59:52;9.80;99.90
1948;DHT22;974;52.400;9.818;2023-02-18T09:02:18;9.90;99.90
1948;DHT22;974;52.400;9.818;2023-02-18T09:04:43;10.00;99.90
1948;DHT22;974;52.400;9.818;2023-02-18T09:07:09;10.00;99.90
1948;DHT22;974;52.400;9.818;2023-02-18T09:09:34;10.10;99.90
1948;DHT22;974;52.400;9.818;2023-02-18T09:12:00;10.10;99.90
1948;DHT22;974;52.400;9.818;2023-02-18T09:14:25;10.10;99.90
1948;DHT22;974;52.400;9.818;2023-02-18T09:16:51;10.10;99.90
1948;DHT22;974;52.400;9.818;2023-02-18T09:19:17;10.10;99.90
1948;DHT22;974;52.400;9.818;2023-02-18T09:21:43;10.10;99.90
1948;DHT22;974;52.400;9.818;2023-02-18T09:24:08;10.10;99.90
1948;DHT22;974;52.400;9.818;2023-02-18T09:26:34;10.20;99.90
1948;DHT22;974;52.400;9.818;2023-02-18T09:29:00;10.20;99.90
1948;DHT22;974;52.400;9.818;2023-02-18T09:31:26;10.30;99.90
1948;DHT22;974;52.400;9.818;2023-02-18T09:33:58;10.30;99.90
1948;DHT22;974;52.400;9.818;2023-02-18T09:36:24;10.40;99.90
1948;DHT22;974;52.400;9.818;2023-02-18T09:38:50;10.40;99.90
1948;DHT22;974;52.400;9.818;2023-02-18T09:41:44;10.40;99.90
1948;DHT22;974;52.400;9.818;2023-02-18T09:44:37;10.40;99.90
1948;DHT22;974;52.400;9.818;2023-02-18T09:49:40;10.50;99.90
1948;DHT22;974;52.400;9.818;2023-02-18T09:52:28;10.50;99.90
1948;DHT22;974;52.400;9.818;2023-02-18T09:54:55;10.50;99.90
1948;DHT22;974;52.400;9.818;2023-02-18T09:57:28;10.50;99.90
1948;DHT22;974;52.400;9.818;2023-02-18T10:00:00;10.60;99.90
1948;DHT22;974;52.400;9.818;2023-02-18T10:02:27;10.50;99.90
1948;DHT22;974;52.400;9.818;2023-02-18T10:04:54;10.60;99.90
1948;DHT22;974;52.400;9.818;2023-02-18T10:07:32;10.60;99.90
1948;DHT22;974;52.400;9.818;2023-02-18T10:10:04;10.50;99.90
1948;DHT22;974;52.400;9.818;2023-02-18T10:12:33;10.60;99.90
1948;DHT22;974;52.400;9.818;2023-02-18T10:15:00;10.60;99.90
1948;DHT22;974;52.400;9.818;2023-02-18T10:17:29;10.60;99.90
1948;DHT22;974;52.400;9.818;2023-02-18T10:19:55;10.70;99.90
1948;DHT22;974;52.400;9.818;2023-02-18T10:22:24;10.70;99.90
1948;DHT22;974;52.400;9.818;2023-02-18T10:24:58;10.60;99.90
1948;DHT22;974;52.400;9.818;2023-02-18T10:27:34;10.70;99.90
1948;DHT22;974;52.400;9.818;2023-02-18T10:30:26;10.70;99.90
1948;DHT22;974;52.400;9.818;2023-02-18T10:35:52;10.60;99.90
1948;DHT22;974;52.400;9.818;2023-02-18T10:46:44;10.60;99.90
1948;DHT22;974;52.400;9.818;2023-02-18T10:51:58;10.50;99.90
1948;DHT22;974;52.400;9.818;2023-02-18T10:54:46;10.50;99.90
1948;DHT22;974;52.400;9.818;2023-02-18T10:57:16;10.50;99.90
1948;DHT22;974;52.400;9.818;2023-02-18T10:59:57;10.50;99.90
1948;DHT22;974;52.400;9.818;2023-02-18T11:02:26;10.60;99.90
1948;DHT22;974;52.400;9.818;2023-02-18T11:04:54;10.60;99.90
1948;DHT22;974;52.400;9.818;2023-02-18T11:07:28;10.70;99.90
1948;DHT22;974;52.400;9.818;2023-02-18T11:09:54;10.70;99.90
1948;DHT22;974;52.400;9.818;2023-02-18T11:12:48;10.70;99.90
1948;DHT22;974;52.400;9.818;2023-02-18T11:17:41;10.70;99.90
1948;DHT22;974;52.400;9.818;2023-02-18T11:20:32;10.70;99.90
1948;DHT22;974;52.400;9.818;2023-02-18T11:23:14;10.70;99.90
1948;DHT22;974;52.400;9.818;2023-02-18T11:25:41;10.60;99.90
1948;DHT22;974;52.400;9.818;2023-02-18T11:30:44;10.50;99.90
1948;DHT22;974;52.400;9.818;2023-02-18T11:33:17;10.50;99.90
1948;DHT22;974;52.400;9.818;2023-02-18T11:35:52;10.30;99.90
1948;DHT22;974;52.400;9.818;2023-02-18T11:38:28;10.30;99.90
1948;DHT22;974;52.400;9.818;2023-02-18T11:41:13;10.40;99.90
1948;DHT22;974;52.400;9.818;2023-02-18T11:43:48;10.40;99.90
1948;DHT22;974;52.400;9.818;2023-02-18T11:46:24;10.40;99.90
1948;DHT22;974;52.400;9.818;2023-02-18T11:48:51;10.40;99.90
1948;DHT22;974;52.400;9.818;2023-02-18T11:51:30;10.30;99.90
1948;DHT22;974;52.400;9.818;2023-02-18T11:54:02;10.20;99.90
1948;DHT22;974;52.400;9.818;2023-02-18T11:56:34;10.20;99.90
1948;DHT22;974;52.400;9.818;2023-02-18T11:59:02;10.30;99.90
1948;DHT22;974;52.400;9.818;2023-02-18T12:01:40;10.30;99.90
1948;DHT22;974;52.400;9.818;2023-02-18T12:04:11;10.20;99.90
1948;DHT22;974;52.400;9.818;2023-02-18T12:09:34;10.20;99.90
1948;DHT22;974;52.400;9.818;2023-02-18T12:12:05;10.10;99.90
1948;DHT22;974;52.400;9.818;2023-02-18T12:14:31;10.10;99.90
1948;DHT22;974;52.400;9.818;2023-02-18T12:20:12;10.10;99.90
1948;DHT22;974;52.400;9.818;2023-02-18T12:23:00;10.00;99.90
1948;DHT22;974;52.400;9.818;2023-02-18T12:25:35;10.00;99.90
1948;DHT22;974;52.400;9.818;2023-02-18T12:31:37;10.00;99.90
1948;DHT22;974;52.400;9.818;2023-02-18T12:37:05;9.90;99.90
1948;DHT22;974;52.400;9.818;2023-02-18T12:39:52;9.90;99.90
1948;DHT22;974;52.400;9.818;2023-02-18T12:42:48;9.90;99.90
1948;DHT22;974;52.400;9.818;2023-02-18T12:48:25;9.90;99.90
1948;DHT22;974;52.400;9.818;2023-02-18T12:50:56;9.80;99.90
1948;DHT22;974;52.400;9.818;2023-02-18T13:01:51;9.80;99.90
1948;DHT22;974;52.400;9.818;2023-02-18T13:04:31;9.90;99.90
1948;DHT22;974;52.400;9.818;2023-02-18T13:07:09;9.90;99.90
1948;DHT22;974;52.400;9.818;2023-02-18T13:15:20;9.80;99.90
1948;DHT22;974;52.400;9.818;2023-02-18T13:17:49;9.80;99.90
1948;DHT22;974;52.400;9.818;2023-02-18T13:20:28;9.80;99.90
1948;DHT22;974;52.400;9.818;2023-02-18T13:22:56;9.80;99.90
1948;DHT22;974;52.400;9.818;2023-02-18T13:25:22;9.80;99.90
1948;DHT22;974;52.400;9.818;2023-02-18T13:28:11;9.80;99.90
1948;DHT22;974;52.400;9.818;2023-02-18T13:34:33;9.80;99.90
1948;DHT22;974;52.400;9.818;2023-02-18T13:39:13;9.80;99.90
1948;DHT22;974;52.400;9.818;2023-02-18T13:41:45;9.80;99.90
1948;DHT22;974;52.400;9.818;2023-02-18T13:46:52;9.80;99.90
1948;DHT22;974;52.400;9.818;2023-02-18T13:49:31;9.80;99.90
1948;DHT22;974;52.400;9.818;2023-02-18T13:51:58;9.70;99.90
1948;DHT22;974;52.400;9.818;2023-02-18T13:54:31;9.80;99.90
1948;DHT22;974;52.400;9.818;2023-02-18T13:57:04;9.80;99.90
1948;DHT22;974;52.400;9.818;2023-02-18T13:59:39;9.80;99.90
1948;DHT22;974;52.400;9.818;2023-02-18T14:13:00;9.80;99.90
1948;DHT22;974;52.400;9.818;2023-02-18T14:25:56;9.90;99.90
1948;DHT22;974;52.400;9.818;2023-02-18T14:39:42;9.80;99.90
1948;DHT22;974;52.400;9.818;2023-02-18T14:45:30;9.80;99.90
1948;DHT22;974;52.400;9.818;2023-02-18T14:50:47;9.80;99.90
1948;DHT22;974;52.400;9.818;2023-02-18T14:53:16;9.90;99.90
1948;DHT22;974;52.400;9.818;2023-02-18T14:55:45;9.80;99.90
1948;DHT22;974;52.400;9.818;2023-02-18T14:58:35;9.80;99.90
1948;DHT22;974;52.400;9.818;2023-02-18T15:03:41;9.90;99.90
1948;DHT22;974;52.400;9.818;2023-02-18T15:06:33;9.90;99.90
1948;DHT22;974;52.400;9.818;2023-02-18T15:09:01;9.80;99.90
1948;DHT22;974;52.400;9.818;2023-02-18T15:11:36;9.90;99.90
1948;DHT22;974;52.400;9.818;2023-02-18T15:14:09;9.90;99.90
1948;DHT22;974;52.400;9.818;2023-02-18T15:16:36;9.90;99.90
1948;DHT22;974;52.400;9.818;2023-02-18T15:19:05;9.80;99.90
1948;DHT22;974;52.400;9.818;2023-02-18T15:21:36;9.80;99.90
1948;DHT22;974;52.400;9.818;2023-02-18T15:24:29;9.80;99.90
1948;DHT22;974;52.400;9.818;2023-02-18T15:27:02;9.80;99.90
1948;DHT22;974;52.400;9.818;2023-02-18T15:29:33;9.80;99.90
1948;DHT22;974;52.400;9.818;2023-02-18T15:31:59;9.80;99.90
1948;DHT22;974;52.400;9.818;2023-02-18T15:34:30;9.80;99.90
1948;DHT22;974;52.400;9.818;2023-02-18T15:36:58;9.80;99.90
1948;DHT22;974;52.400;9.818;2023-02-18T15:39:24;9.80;99.90
1948;DHT22;974;52.400;9.818;2023-02-18T15:42:08;9.80;99.90
1948;DHT22;974;52.400;9.818;2023-02-18T15:44:35;9.80;99.90
1948;DHT22;974;52.400;9.818;2023-02-18T15:47:06;9.80;99.90
1948;DHT22;974;52.400;9.818;2023-02-18T15:49:36;9.80;99.90
1948;DHT22;974;52.400;9.818;2023-02-18T15:52:03;9.80;99.90
1948;DHT22;974;52.400;9.818;2023-02-18T15:54:29;9.70;99.90
1948;DHT22;974;52.400;9.818;2023-02-18T15:57:00;9.80;99.90
1948;DHT22;974;52.400;9.818;2023-02-18T15:59:34;9.80;99.90
1948;DHT22;974;52.400;9.818;2023-02-18T16:02:18;9.70;99.90
1948;DHT22;974;52.400;9.818;2023-02-18T16:05:00;9.80;99.90
1948;DHT22;974;52.400;9.818;2023-02-18T16:07:29;9.80;99.90
1948;DHT22;974;52.400;9.818;2023-02-18T16:12:38;9.80;99.90
1948;DHT22;974;52.400;9.818;2023-02-18T16:15:04;9.80;99.90
1948;DHT22;974;52.400;9.818;2023-02-18T16:17:30;9.80;99.90
1948;DHT22;974;52.400;9.818;2023-02-18T16:20:39;9.80;99.90
1948;DHT22;974;52.400;9.818;2023-02-18T16:22:49;9.80;99.90
1948;DHT22;974;52.400;9.818;2023-02-18T16:25:21;9.80;99.90
1948;DHT22;974;52.400;9.818;2023-02-18T16:32:45;9.80;99.90
1948;DHT22;974;52.400;9.818;2023-02-18T16:35:11;9.80;99.90
1948;DHT22;974;52.400;9.818;2023-02-18T16:37:37;9.80;99.90
1948;DHT22;974;52.400;9.818;2023-02-18T16:40:09;9.80;99.90
1948;DHT22;974;52.400;9.818;2023-02-18T16:42:36;9.80;99.90
1948;DHT22;974;52.400;9.818;2023-02-18T16:45:01;9.80;99.90
1948;DHT22;974;52.400;9.818;2023-02-18T16:47:27;9.80;99.90
1948;DHT22;974;52.400;9.818;2023-02-18T16:49:55;9.80;99.90
1948;DHT22;974;52.400;9.818;2023-02-18T16:52:22;9.80;99.90
1948;DHT22;974;52.400;9.818;2023-02-18T16:54:48;9.80;99.90
1948;DHT22;974;52.400;9.818;2023-02-18T16:57:14;9.80;99.90
1948;DHT22;974;52.400;9.818;2023-02-18T16:59:39;9.80;99.90
1948;DHT22;974;52.400;9.818;2023-02-18T17:02:17;9.80;99.90
1948;DHT22;974;52.400;9.818;2023-02-18T17:04:44;9.80;99.90
1948;DHT22;974;52.400;9.818;2023-02-18T17:07:10;9.80;99.90
1948;DHT22;974;52.400;9.818;2023-02-18T17:09:35;9.80;99.90
1948;DHT22;974;52.400;9.818;2023-02-18T17:12:01;9.80;99.90
1948;DHT22;974;52.400;9.818;2023-02-18T17:14:27;9.80;99.90
1948;DHT22;974;52.400;9.818;2023-02-18T17:16:53;9.80;99.90
1948;DHT22;974;52.400;9.818;2023-02-18T17:19:19;9.80;99.90
1948;DHT22;974;52.400;9.818;2023-02-18T17:21:45;9.80;99.90
1948;DHT22;974;52.400;9.818;2023-02-18T17:24:16;9.40;99.90
1948;DHT22;974;52.400;9.818;2023-02-18T17:26:42;9.80;99.90
1948;DHT22;974;52.400;9.818;2023-02-18T17:29:07;9.80;99.90
1948;DHT22;974;52.400;9.818;2023-02-18T17:31:36;9.70;99.90
1948;DHT22;974;52.400;9.818;2023-02-18T17:34:06;9.80;99.90
1948;DHT22;974;52.400;9.818;2023-02-18T17:36:31;9.80;99.90
1948;DHT22;974;52.400;9.818;2023-02-18T17:38:58;9.80;99.90
1948;DHT22;974;52.400;9.818;2023-02-18T17:41:24;9.70;99.90
1948;DHT22;974;52.400;9.818;2023-02-18T17:43:49;9.80;99.90
1948;DHT22;974;52.400;9.818;2023-02-18T17:46:16;9.70;99.90
1948;DHT22;974;52.400;9.818;2023-02-18T17:48:42;9.80;99.90
1948;DHT22;974;52.400;9.818;2023-02-18T17:51:25;9.80;99.90
1948;DHT22;974;52.400;9.818;2023-02-18T17:53:52;9.70;99.90
1948;DHT22;974;52.400;9.818;2023-02-18T17:56:17;9.80;99.90
1948;DHT22;974;52.400;9.818;2023-02-18T17:58:43;9.70;99.90
1948;DHT22;974;52.400;9.818;2023-02-18T18:01:10;9.80;99.90
1948;DHT22;974;52.400;9.818;2023-02-18T18:03:36;9.70;99.90
1948;DHT22;974;52.400;9.818;2023-02-18T18:06:01;9.70;99.90
1948;DHT22;974;52.400;9.818;2023-02-18T18:08:29;9.70;99.90
1948;DHT22;974;52.400;9.818;2023-02-18T18:10:58;11.10;99.90
1948;DHT22;974;52.400;9.818;2023-02-18T18:13:29;9.70;99.90
1948;DHT22;974;52.400;9.818;2023-02-18T18:15:57;9.70;99.90
1948;DHT22;974;52.400;9.818;2023-02-18T18:18:22;9.70;99.90
1948;DHT22;974;52.400;9.818;2023-02-18T18:20:51;9.70;99.90
1948;DHT22;974;52.400;9.818;2023-02-18T18:23:18;9.70;99.90
1948;DHT22;974;52.400;9.818;2023-02-18T18:25:46;9.70;99.90
1948;DHT22;974;52.400;9.818;2023-02-18T18:28:12;9.80;99.90
1948;DHT22;974;52.400;9.818;2023-02-18T18:30:41;11.40;99.90
1948;DHT22;974;52.400;9.818;2023-02-18T18:33:27;9.80;99.90
1948;DHT22;974;52.400;9.818;2023-02-18T18:35:55;9.80;99.90
1948;DHT22;974;52.400;9.818;2023-02-18T18:38:22;9.80;99.90
1948;DHT22;974;52.400;9.818;2023-02-18T18:40:49;9.80;99.90
1948;DHT22;974;52.400;9.818;2023-02-18T18:43:26;9.80;99.90
1948;DHT22;974;52.400;9.818;2023-02-18T18:45:53;9.80;99.90
1948;DHT22;974;52.400;9.818;2023-02-18T18:48:20;9.80;99.90
1948;DHT22;974;52.400;9.818;2023-02-18T18:50:47;9.80;99.90
1948;DHT22;974;52.400;9.818;2023-02-18T18:53:18;9.80;99.90
1948;DHT22;974;52.400;9.818;2023-02-18T18:55:44;9.80;99.90
1948;DHT22;974;52.400;9.818;2023-02-18T18:58:10;9.80;99.90
1948;DHT22;974;52.400;9.818;2023-02-18T19:00:38;9.80;99.90
1948;DHT22;974;52.400;9.818;2023-02-18T19:03:04;9.80;99.90
1948;DHT22;974;52.400;9.818;2023-02-18T19:05:33;9.80;99.90
1948;DHT22;974;52.400;9.818;2023-02-18T19:07:59;9.70;99.90
1948;DHT22;974;52.400;9.818;2023-02-18T19:10:29;9.80;99.90